createdAt,value
2024-02-19T00:00:52.123Z,3.80
2024-02-19T00:06:16.534Z,4.40
2024-02-19T00:11:20.891Z,4.20
2024-02-19T00:16:24.853Z,3.80
2024-02-19T00:21:29.165Z,3.90
2024-02-19T00:26:33.776Z,4.10
2024-02-19T00:31:38.331Z,4.30
2024-02-19T00:36:44.979Z,4.30
2024-02-19T00:41:49.896Z,4.10
2024-02-19T00:46:54.881Z,4.20
2024-02-19T00:51:59.731Z,4.00
2024-02-19T00:57:04.557Z,4.10
2024-02-19T01:02:09.757Z,4.10
2024-02-19T01:07:13.892Z,4.50
2024-02-19T01:12:18.762Z,3.90
2024-02-19T01:17:23.105Z,4.00
2024-02-19T01:22:29.344Z,4.20
2024-02-19T01:27:33.569Z,4.50
2024-02-19T01:32:38.766Z,4.10
2024-02-19T01:37:46.384Z,4.60
2024-02-19T01:43:07.072Z,4.40
2024-02-19T01:48:15.242Z,3.90
2024-02-19T01:53:19.649Z,3.80
2024-02-19T01:58:24.969Z,4.00
2024-02-19T02:03:34.486Z,4.30
2024-02-19T02:08:41.919Z,3.90
2024-02-19T02:13:47.537Z,4.50
2024-02-19T02:18:54.714Z,3.80
2024-02-19T02:23:59.885Z,5.00
2024-02-19T02:29:04.073Z,4.90
2024-02-19T02:34:08.583Z,4.10
2024-02-19T02:39:13.214Z,4.40
2024-02-19T02:44:18.326Z,4.50
2024-02-19T02:49:22.636Z,3.70
2024-02-19T02:54:27.799Z,4.30
2024-02-19T02:59:32.074Z,4.00
2024-02-19T03:04:36.629Z,4.30
2024-02-19T03:09:40.935Z,4.10
2024-02-19T03:14:45.839Z,3.90
2024-02-19T03:19:49.971Z,4.00
2024-02-19T03:24:55.312Z,3.40
2024-02-19T03:29:59.907Z,4.10
2024-02-19T03:35:05.142Z,4.00
2024-02-19T03:40:10.384Z,4.00
2024-02-19T03:45:15.037Z,4.10
2024-02-19T03:50:19.460Z,3.90
2024-02-19T03:55:24.041Z,3.70
2024-02-19T04:00:28.288Z,3.40
2024-02-19T04:05:33.335Z,4.00
2024-02-19T04:10:37.406Z,4.20
2024-02-19T04:15:42.008Z,4.00
2024-02-19T04:20:46.116Z,3.50
2024-02-19T04:25:50.642Z,3.90
2024-02-19T04:30:55.238Z,3.60
2024-02-19T04:36:00.084Z,3.80
2024-02-19T04:41:05.070Z,3.70
2024-02-19T04:46:09.081Z,4.10
2024-02-19T04:51:13.234Z,3.70
2024-02-19T04:56:17.644Z,3.50
2024-02-19T05:01:21.583Z,3.70
2024-02-19T05:06:26.488Z,4.00
2024-02-19T05:11:31.788Z,3.40
2024-02-19T05:16:35.885Z,3.50
2024-02-19T05:21:42.874Z,3.20
2024-02-19T05:26:47.100Z,3.40
2024-02-19T05:31:53.014Z,3.40
2024-02-19T05:36:58.151Z,3.50
2024-02-19T05:42:03.647Z,3.40
2024-02-19T05:47:08.056Z,3.20
2024-02-19T05:52:12.188Z,3.30
2024-02-19T05:57:16.613Z,3.20
2024-02-19T06:02:21.613Z,3.90
2024-02-19T06:07:25.996Z,3.40
2024-02-19T06:12:30.197Z,3.50
2024-02-19T06:17:34.811Z,3.30
2024-02-19T06:22:39.328Z,2.80
2024-02-19T06:27:43.474Z,3.30
2024-02-19T06:32:48.188Z,2.90
2024-02-19T06:37:52.436Z,2.90
2024-02-19T06:42:57.123Z,3.10
2024-02-19T06:48:02.194Z,3.10
2024-02-19T06:53:07.965Z,2.90
2024-02-19T06:58:12.881Z,2.60
2024-02-19T07:03:17.818Z,2.50
2024-02-19T07:08:22.413Z,2.40
2024-02-19T07:13:27.492Z,3.60
2024-02-19T07:18:32.066Z,3.70
2024-02-19T07:23:36.720Z,3.50
2024-02-19T07:28:41.115Z,3.70
2024-02-19T07:33:45.696Z,3.60
2024-02-19T07:38:50.397Z,3.40
2024-02-19T07:43:54.861Z,3.40
2024-02-19T07:49:07.289Z,3.10
2024-02-19T07:54:12.528Z,3.40
2024-02-19T07:59:16.957Z,3.20
2024-02-19T08:04:23.639Z,3.30
2024-02-19T08:09:28.140Z,3.50
2024-02-19T08:14:32.318Z,3.10
2024-02-19T08:19:37.702Z,3.70
2024-02-19T08:24:42.294Z,3.20
2024-02-19T08:29:46.694Z,3.70
2024-02-19T08:34:51.025Z,3.50
2024-02-19T08:39:55.321Z,3.60
2024-02-19T08:44:59.933Z,3.40
2024-02-19T08:50:06.004Z,5.20
2024-02-19T08:55:12.166Z,5.50
2024-02-19T09:00:17.390Z,5.80
2024-02-19T09:05:21.712Z,4.60
2024-02-19T09:10:26.160Z,4.80
2024-02-19T09:15:30.954Z,4.10
2024-02-19T09:20:35.461Z,4.50
2024-02-19T09:25:40.594Z,4.50
2024-02-19T09:30:45.277Z,4.20
2024-02-19T09:35:49.966Z,4.40
2024-02-19T09:40:54.262Z,4.40
2024-02-19T09:46:00.843Z,4.20
2024-02-19T09:51:07.138Z,4.10
2024-02-19T09:56:15.992Z,3.70
2024-02-19T10:01:20.659Z,4.00
2024-02-19T10:06:35.313Z,3.50
2024-02-19T10:11:40.559Z,4.00
2024-02-19T10:16:52.405Z,3.70
2024-02-19T10:21:56.697Z,3.30
2024-02-19T10:27:01.606Z,3.30
2024-02-19T10:32:06.927Z,3.20
2024-02-19T10:37:11.165Z,3.30
2024-02-19T10:42:15.647Z,3.70
2024-02-19T10:47:19.801Z,3.30
2024-02-19T10:52:27.329Z,3.00
2024-02-19T10:57:34.495Z,2.80
2024-02-19T11:02:40.175Z,3.30
2024-02-19T11:07:45.837Z,3.10
2024-02-19T11:12:50.680Z,3.10
2024-02-19T11:17:58.028Z,3.00
2024-02-19T11:23:02.254Z,2.50
2024-02-19T11:28:07.180Z,2.70
2024-02-19T11:33:13.076Z,2.90
2024-02-19T11:38:28.108Z,3.10
2024-02-19T11:43:32.925Z,2.70
2024-02-19T11:48:37.716Z,2.80
2024-02-19T11:53:42.072Z,2.90
2024-02-19T11:58:50.753Z,3.40
2024-02-19T12:03:55.564Z,2.50
2024-02-19T12:08:59.704Z,2.60
2024-02-19T12:14:08.447Z,2.70
2024-02-19T12:19:13.259Z,2.60
2024-02-19T12:24:17.833Z,2.60
2024-02-19T12:29:22.078Z,2.70
2024-02-19T12:34:26.413Z,2.70
2024-02-19T12:39:32.184Z,2.40
2024-02-19T12:44:36.657Z,2.00
2024-02-19T12:49:46.547Z,2.30
2024-02-19T12:54:51.504Z,2.20
2024-02-19T12:59:56.890Z,2.40
2024-02-19T13:05:02.679Z,2.00
2024-02-19T13:10:08.044Z,2.50
2024-02-19T13:15:12.963Z,2.00
2024-02-19T13:20:18.065Z,2.40
2024-02-19T13:25:22.662Z,2.20
2024-02-19T13:30:27.173Z,2.20
2024-02-19T13:35:31.690Z,2.10
2024-02-19T13:40:36.475Z,1.90
2024-02-19T13:45:59.157Z,2.30
2024-02-19T13:51:03.660Z,2.20
2024-02-19T13:56:08.194Z,1.70
2024-02-19T14:01:12.401Z,2.10
2024-02-19T14:06:18.258Z,1.80
2024-02-19T14:11:23.461Z,1.90
2024-02-19T14:16:28.407Z,2.00
2024-02-19T14:21:37.105Z,1.80
2024-02-19T14:26:44.859Z,2.10
2024-02-19T14:31:50.048Z,1.60
2024-02-19T14:36:54.624Z,1.60
2024-02-19T14:42:00.528Z,1.80
2024-02-19T14:47:07.399Z,1.40
2024-02-19T14:52:23.144Z,1.70
2024-02-19T14:57:30.372Z,1.70
2024-02-19T15:02:34.852Z,1.80
2024-02-19T15:07:39.863Z,2.30
2024-02-19T15:12:45.513Z,1.60
2024-02-19T15:17:50.861Z,1.80
2024-02-19T15:22:55.170Z,1.40
2024-02-19T15:28:00.043Z,1.60
2024-02-19T15:33:04.610Z,1.60
2024-02-19T15:38:10.140Z,6.70
2024-02-19T15:43:14.573Z,4.40
2024-02-19T15:48:18.783Z,2.50
2024-02-19T15:53:28.600Z,2.10
2024-02-19T15:58:35.725Z,2.50
2024-02-19T16:03:41.618Z,2.80
2024-02-19T16:08:46.157Z,5.40
2024-02-19T16:13:51.762Z,4.60
2024-02-19T16:18:57.461Z,3.60
2024-02-19T16:24:02.037Z,3.70
2024-02-19T16:29:06.409Z,3.30
2024-02-19T16:34:10.964Z,3.60
2024-02-19T16:39:18.721Z,3.10
2024-02-19T16:44:27.051Z,3.00
2024-02-19T16:49:33.431Z,3.10
2024-02-19T16:54:37.650Z,2.60
2024-02-19T16:59:44.673Z,2.50
2024-02-19T17:04:50.947Z,2.80
2024-02-19T17:09:55.557Z,2.80
2024-02-19T17:15:00.897Z,2.70
2024-02-19T17:20:07.276Z,2.40
2024-02-19T17:25:12.986Z,2.90
2024-02-19T17:30:18.068Z,2.70
2024-02-19T17:35:25.141Z,2.10
2024-02-19T17:40:32.210Z,1.70
2024-02-19T17:45:37.630Z,2.00
2024-02-19T17:56:48.814Z,2.50
2024-02-19T18:01:56.290Z,2.50
2024-02-19T18:07:47.019Z,1.90
2024-02-19T18:13:09.097Z,2.20
2024-02-19T18:18:16.470Z,1.60
2024-02-19T18:23:23.354Z,2.20
2024-02-19T18:28:29.822Z,2.00
2024-02-19T18:33:36.056Z,1.70
2024-02-19T18:38:40.977Z,1.70
2024-02-19T18:43:48.309Z,1.80
2024-02-19T18:48:55.538Z,1.90
2024-02-19T18:53:59.983Z,1.50
2024-02-19T18:59:04.872Z,1.70
2024-02-19T19:04:12.156Z,3.20
2024-02-19T19:09:16.444Z,2.20
2024-02-19T19:14:21.816Z,1.60
2024-02-19T19:19:25.923Z,1.50
2024-02-19T19:24:31.198Z,1.50
2024-02-19T19:29:35.109Z,1.70
2024-02-19T19:34:40.476Z,1.70
2024-02-19T19:39:46.694Z,2.00
2024-02-19T19:44:52.597Z,1.40
2024-02-19T19:49:57.510Z,1.60
2024-02-19T19:55:03.757Z,1.80
2024-02-19T20:00:08.828Z,1.60
2024-02-19T20:05:13.899Z,1.70
2024-02-19T20:10:19.025Z,1.30
2024-02-19T20:15:23.619Z,1.60
2024-02-19T20:20:28.186Z,2.00
2024-02-19T20:25:34.999Z,1.80
2024-02-19T20:30:40.139Z,1.50
2024-02-19T20:35:45.668Z,2.10
2024-02-19T20:40:50.273Z,1.90
2024-02-19T20:45:55.013Z,2.10
2024-02-19T20:51:13.153Z,1.60
2024-02-19T20:56:19.040Z,1.80
2024-02-19T21:01:23.210Z,1.90
2024-02-19T21:06:36.395Z,1.40
2024-02-19T21:11:41.113Z,1.70
2024-02-19T21:16:46.589Z,1.90
2024-02-19T21:21:54.060Z,1.70
2024-02-19T21:27:00.341Z,1.30
2024-02-19T21:32:05.715Z,1.80
2024-02-19T21:37:09.801Z,1.80
2024-02-19T21:42:21.952Z,1.30
2024-02-19T21:47:27.833Z,2.20
2024-02-19T21:52:32.098Z,1.60
2024-02-19T21:57:39.538Z,1.40
2024-02-19T22:02:43.823Z,1.30
2024-02-19T22:07:48.161Z,1.50
2024-02-19T22:12:52.340Z,1.70
2024-02-19T22:17:56.553Z,1.30
2024-02-19T22:23:01.163Z,1.10
2024-02-19T22:28:06.600Z,1.70
2024-02-19T22:33:11.456Z,1.20
2024-02-19T22:38:15.717Z,1.10
2024-02-19T22:43:19.804Z,1.30
2024-02-19T22:48:24.563Z,1.70
2024-02-19T22:53:28.574Z,1.90
2024-02-19T22:58:35.081Z,1.70
2024-02-19T23:03:40.019Z,1.70
2024-02-19T23:08:44.586Z,1.40
2024-02-19T23:13:49.161Z,1.20
2024-02-19T23:18:53.943Z,1.20
2024-02-19T23:23:58.381Z,1.10
2024-02-19T23:29:02.861Z,1.20
2024-02-19T23:34:07.647Z,1.10
2024-02-19T23:39:12.454Z,1.20
2024-02-19T23:44:18.384Z,1.00
2024-02-19T23:49:23.185Z,1.30
2024-02-19T23:54:31.052Z,1.20
2024-02-19T23:59:36.128Z,0.90
